sensor_id;sensor_type;location;lat;lon;timestamp;P1;durP1;ratioP1;P2;durP2;ratioP2
53339;SDS011;46212;50.258;19.062;2023-04-01T00:01:23;7.53;;;2.93;;
53339;SDS011;46212;50.258;19.062;2023-04-01T00:03:49;5.90;;;3.33;;
53339;SDS011;46212;50.258;19.062;2023-04-01T00:06:15;10.77;;;3.90;;
53339;SDS011;46212;50.258;19.062;2023-04-01T00:08:42;8.52;;;3.97;;
53339;SDS011;46212;50.258;19.062;2023-04-01T00:11:07;9.73;;;3.37;;
53339;SDS011;46212;50.258;19.062;2023-04-01T00:13:33;10.03;;;3.63;;
53339;SDS011;46212;50.258;19.062;2023-04-01T00:15:58;10.70;;;4.03;;
53339;SDS011;46212;50.258;19.062;2023-04-01T00:18:24;8.27;;;3.83;;
53339;SDS011;46212;50.258;19.062;2023-04-01T00:20:50;13.23;;;4.63;;
53339;SDS011;46212;50.258;19.062;2023-04-01T00:23:16;10.00;;;4.35;;
53339;SDS011;46212;50.258;19.062;2023-04-01T00:25:42;6.13;;;3.67;;
53339;SDS011;46212;50.258;19.062;2023-04-01T00:28:09;7.07;;;3.25;;
53339;SDS011;46212;50.258;19.062;2023-04-01T00:30:35;9.70;;;4.63;;
53339;SDS011;46212;50.258;19.062;2023-04-01T00:33:01;7.90;;;3.90;;
53339;SDS011;46212;50.258;19.062;2023-04-01T00:35:26;14.27;;;5.07;;
53339;SDS011;46212;50.258;19.062;2023-04-01T00:37:52;9.07;;;4.30;;
53339;SDS011;46212;50.258;19.062;2023-04-01T00:40:51;8.17;;;3.40;;
53339;SDS011;46212;50.258;19.062;2023-04-01T00:43:12;13.50;;;5.30;;
53339;SDS011;46212;50.258;19.062;2023-04-01T00:45:47;9.68;;;4.35;;
53339;SDS011;46212;50.258;19.062;2023-04-01T00:48:17;10.38;;;3.95;;
53339;SDS011;46212;50.258;19.062;2023-04-01T00:50:49;10.85;;;5.00;;
53339;SDS011;46212;50.258;19.062;2023-04-01T00:53:19;11.25;;;5.07;;
53339;SDS011;46212;50.258;19.062;2023-04-01T00:55:49;12.52;;;5.88;;
53339;SDS011;46212;50.258;19.062;2023-04-01T00:58:20;13.00;;;5.57;;
53339;SDS011;46212;50.258;19.062;2023-04-01T01:00:48;10.57;;;4.90;;
53339;SDS011;46212;50.258;19.062;2023-04-01T01:03:15;10.90;;;3.88;;
53339;SDS011;46212;50.258;19.062;2023-04-01T01:08:17;13.95;;;6.18;;
53339;SDS011;46212;50.258;19.062;2023-04-01T01:10:56;11.98;;;4.78;;
53339;SDS011;46212;50.258;19.062;2023-04-01T01:15:48;11.37;;;5.23;;
53339;SDS011;46212;50.258;19.062;2023-04-01T01:18:32;6.43;;;3.53;;
53339;SDS011;46212;50.258;19.062;2023-04-01T01:22:00;9.27;;;5.00;;
53339;SDS011;46212;50.258;19.062;2023-04-01T01:24:30;10.48;;;4.80;;
53339;SDS011;46212;50.258;19.062;2023-04-01T01:27:02;12.07;;;4.95;;
53339;SDS011;46212;50.258;19.062;2023-04-01T01:32:11;11.32;;;5.50;;
53339;SDS011;46212;50.258;19.062;2023-04-01T01:37:35;7.55;;;4.70;;
53339;SDS011;46212;50.258;19.062;2023-04-01T01:40:05;14.23;;;4.28;;
53339;SDS011;46212;50.258;19.062;2023-04-01T01:42:34;11.43;;;4.72;;
53339;SDS011;46212;50.258;19.062;2023-04-01T01:45:03;7.80;;;3.85;;
53339;SDS011;46212;50.258;19.062;2023-04-01T01:47:30;11.45;;;5.78;;
53339;SDS011;46212;50.258;19.062;2023-04-01T01:49:58;10.68;;;4.32;;
53339;SDS011;46212;50.258;19.062;2023-04-01T01:52:26;10.93;;;5.68;;
53339;SDS011;46212;50.258;19.062;2023-04-01T01:54:54;11.27;;;4.85;;
53339;SDS011;46212;50.258;19.062;2023-04-01T01:57:33;11.10;;;5.18;;
53339;SDS011;46212;50.258;19.062;2023-04-01T02:00:06;15.25;;;5.18;;
53339;SDS011;46212;50.258;19.062;2023-04-01T02:02:41;10.23;;;5.03;;
53339;SDS011;46212;50.258;19.062;2023-04-01T02:05:10;6.72;;;4.07;;
53339;SDS011;46212;50.258;19.062;2023-04-01T02:07:41;12.80;;;5.35;;
53339;SDS011;46212;50.258;19.062;2023-04-01T02:10:12;10.77;;;5.28;;
53339;SDS011;46212;50.258;19.062;2023-04-01T02:12:38;10.97;;;4.47;;
53339;SDS011;46212;50.258;19.062;2023-04-01T02:17:30;8.23;;;4.17;;
53339;SDS011;46212;50.258;19.062;2023-04-01T02:20:00;8.98;;;4.60;;
53339;SDS011;46212;50.258;19.062;2023-04-01T02:22:37;7.38;;;3.70;;
53339;SDS011;46212;50.258;19.062;2023-04-01T02:25:13;6.57;;;4.07;;
53339;SDS011;46212;50.258;19.062;2023-04-01T02:27:42;9.13;;;4.45;;
53339;SDS011;46212;50.258;19.062;2023-04-01T02:30:09;8.20;;;4.10;;
53339;SDS011;46212;50.258;19.062;2023-04-01T02:32:35;8.88;;;4.43;;
53339;SDS011;46212;50.258;19.062;2023-04-01T02:35:04;7.45;;;4.03;;
53339;SDS011;46212;50.258;19.062;2023-04-01T02:37:35;7.93;;;3.78;;
53339;SDS011;46212;50.258;19.062;2023-04-01T02:40:02;8.13;;;3.50;;
53339;SDS011;46212;50.258;19.062;2023-04-01T02:42:29;8.25;;;4.60;;
53339;SDS011;46212;50.258;19.062;2023-04-01T02:44:55;10.13;;;4.70;;
53339;SDS011;46212;50.258;19.062;2023-04-01T02:47:20;8.68;;;4.30;;
53339;SDS011;46212;50.258;19.062;2023-04-01T02:49:46;6.10;;;3.93;;
53339;SDS011;46212;50.258;19.062;2023-04-01T02:52:11;9.47;;;3.90;;
53339;SDS011;46212;50.258;19.062;2023-04-01T02:54:36;10.23;;;4.93;;
53339;SDS011;46212;50.258;19.062;2023-04-01T02:57:02;12.07;;;4.50;;
53339;SDS011;46212;50.258;19.062;2023-04-01T02:59:27;9.13;;;4.07;;
53339;SDS011;46212;50.258;19.062;2023-04-01T03:01:53;9.17;;;4.40;;
53339;SDS011;46212;50.258;19.062;2023-04-01T03:04:18;8.03;;;4.43;;
53339;SDS011;46212;50.258;19.062;2023-04-01T03:06:43;9.30;;;3.70;;
53339;SDS011;46212;50.258;19.062;2023-04-01T03:09:09;10.63;;;3.87;;
53339;SDS011;46212;50.258;19.062;2023-04-01T03:11:34;6.83;;;3.80;;
53339;SDS011;46212;50.258;19.062;2023-04-01T03:14:00;8.50;;;3.83;;
53339;SDS011;46212;50.258;19.062;2023-04-01T03:16:26;7.53;;;3.83;;
53339;SDS011;46212;50.258;19.062;2023-04-01T03:18:51;10.03;;;4.03;;
53339;SDS011;46212;50.258;19.062;2023-04-01T03:21:18;8.48;;;3.85;;
53339;SDS011;46212;50.258;19.062;2023-04-01T03:23:46;5.70;;;2.85;;
53339;SDS011;46212;50.258;19.062;2023-04-01T03:26:11;7.83;;;3.67;;
53339;SDS011;46212;50.258;19.062;2023-04-01T03:28:37;7.80;;;3.47;;
53339;SDS011;46212;50.258;19.062;2023-04-01T03:31:02;7.73;;;3.97;;
53339;SDS011;46212;50.258;19.062;2023-04-01T03:33:28;10.60;;;4.30;;
53339;SDS011;46212;50.258;19.062;2023-04-01T03:35:53;9.60;;;5.20;;
53339;SDS011;46212;50.258;19.062;2023-04-01T03:38:19;10.10;;;4.60;;
53339;SDS011;46212;50.258;19.062;2023-04-01T03:40:45;10.53;;;4.30;;
53339;SDS011;46212;50.258;19.062;2023-04-01T03:43:10;9.30;;;4.43;;
53339;SDS011;46212;50.258;19.062;2023-04-01T03:45:42;9.13;;;5.13;;
53339;SDS011;46212;50.258;19.062;2023-04-01T03:48:09;8.82;;;4.40;;
53339;SDS011;46212;50.258;19.062;2023-04-01T03:50:34;8.53;;;4.47;;
53339;SDS011;46212;50.258;19.062;2023-04-01T03:53:06;15.67;;;6.93;;
53339;SDS011;46212;50.258;19.062;2023-04-01T03:55:32;9.98;;;4.80;;
53339;SDS011;46212;50.258;19.062;2023-04-01T03:57:58;12.63;;;4.63;;
53339;SDS011;46212;50.258;19.062;2023-04-01T04:00:23;16.40;;;6.10;;
53339;SDS011;46212;50.258;19.062;2023-04-01T04:02:48;8.33;;;5.00;;
53339;SDS011;46212;50.258;19.062;2023-04-01T04:05:14;6.50;;;2.87;;
53339;SDS011;46212;50.258;19.062;2023-04-01T04:07:40;9.00;;;4.33;;
53339;SDS011;46212;50.258;19.062;2023-04-01T04:10:05;8.20;;;4.10;;
53339;SDS011;46212;50.258;19.062;2023-04-01T04:12:31;11.03;;;4.83;;
53339;SDS011;46212;50.258;19.062;2023-04-01T04:14:57;7.00;;;3.87;;
53339;SDS011;46212;50.258;19.062;2023-04-01T04:17:22;10.53;;;4.23;;
53339;SDS011;46212;50.258;19.062;2023-04-01T04:19:48;7.60;;;3.90;;
53339;SDS011;46212;50.258;19.062;2023-04-01T04:22:13;9.90;;;3.78;;
53339;SDS011;46212;50.258;19.062;2023-04-01T04:24:39;9.27;;;3.57;;
53339;SDS011;46212;50.258;19.062;2023-04-01T04:27:04;7.17;;;3.73;;
53339;SDS011;46212;50.258;19.062;2023-04-01T04:29:30;8.23;;;3.47;;
53339;SDS011;46212;50.258;19.062;2023-04-01T04:31:55;8.27;;;3.33;;
53339;SDS011;46212;50.258;19.062;2023-04-01T04:34:21;5.63;;;3.10;;
53339;SDS011;46212;50.258;19.062;2023-04-01T04:36:47;7.38;;;3.53;;
53339;SDS011;46212;50.258;19.062;2023-04-01T04:39:13;6.20;;;2.93;;
53339;SDS011;46212;50.258;19.062;2023-04-01T04:41:38;6.30;;;3.23;;
53339;SDS011;46212;50.258;19.062;2023-04-01T04:44:04;8.97;;;3.77;;
53339;SDS011;46212;50.258;19.062;2023-04-01T04:46:30;4.73;;;2.40;;
53339;SDS011;46212;50.258;19.062;2023-04-01T04:48:55;8.40;;;3.20;;
53339;SDS011;46212;50.258;19.062;2023-04-01T04:51:21;5.00;;;3.43;;
53339;SDS011;46212;50.258;19.062;2023-04-01T04:53:47;7.67;;;2.93;;
53339;SDS011;46212;50.258;19.062;2023-04-01T04:56:16;5.22;;;3.33;;
53339;SDS011;46212;50.258;19.062;2023-04-01T04:58:43;7.47;;;3.22;;
53339;SDS011;46212;50.258;19.062;2023-04-01T05:01:10;6.63;;;2.63;;
53339;SDS011;46212;50.258;19.062;2023-04-01T05:03:37;5.75;;;2.67;;
53339;SDS011;46212;50.258;19.062;2023-04-01T05:06:03;5.10;;;2.77;;
53339;SDS011;46212;50.258;19.062;2023-04-01T05:08:30;5.70;;;2.40;;
53339;SDS011;46212;50.258;19.062;2023-04-01T05:10:55;8.20;;;2.97;;
53339;SDS011;46212;50.258;19.062;2023-04-01T05:13:21;6.97;;;3.43;;
53339;SDS011;46212;50.258;19.062;2023-04-01T05:15:46;6.47;;;3.03;;
53339;SDS011;46212;50.258;19.062;2023-04-01T05:18:12;5.80;;;2.70;;
53339;SDS011;46212;50.258;19.062;2023-04-01T05:20:37;11.10;;;3.73;;
53339;SDS011;46212;50.258;19.062;2023-04-01T05:23:03;8.27;;;3.73;;
53339;SDS011;46212;50.258;19.062;2023-04-01T05:25:28;9.13;;;2.80;;
53339;SDS011;46212;50.258;19.062;2023-04-01T05:27:54;8.57;;;4.00;;
53339;SDS011;46212;50.258;19.062;2023-04-01T05:30:20;6.70;;;3.93;;
53339;SDS011;46212;50.258;19.062;2023-04-01T05:32:45;7.70;;;3.13;;
53339;SDS011;46212;50.258;19.062;2023-04-01T05:35:11;7.83;;;4.10;;
53339;SDS011;46212;50.258;19.062;2023-04-01T05:37:36;8.47;;;4.40;;
53339;SDS011;46212;50.258;19.062;2023-04-01T05:40:03;10.10;;;3.40;;
53339;SDS011;46212;50.258;19.062;2023-04-01T05:42:29;8.48;;;3.53;;
53339;SDS011;46212;50.258;19.062;2023-04-01T05:44:55;9.30;;;3.70;;
53339;SDS011;46212;50.258;19.062;2023-04-01T05:47:21;8.13;;;3.60;;
53339;SDS011;46212;50.258;19.062;2023-04-01T05:49:46;8.63;;;3.35;;
53339;SDS011;46212;50.258;19.062;2023-04-01T05:52:12;10.83;;;3.63;;
53339;SDS011;46212;50.258;19.062;2023-04-01T05:54:37;11.40;;;3.20;;
53339;SDS011;46212;50.258;19.062;2023-04-01T05:57:03;6.47;;;3.33;;
53339;SDS011;46212;50.258;19.062;2023-04-01T05:59:28;10.43;;;4.13;;
53339;SDS011;46212;50.258;19.062;2023-04-01T06:01:56;11.73;;;4.13;;
53339;SDS011;46212;50.258;19.062;2023-04-01T06:04:22;5.63;;;2.93;;
53339;SDS011;46212;50.258;19.062;2023-04-01T06:06:48;5.80;;;3.40;;
53339;SDS011;46212;50.258;19.062;2023-04-01T06:09:14;6.20;;;3.37;;
53339;SDS011;46212;50.258;19.062;2023-04-01T06:15:15;7.45;;;3.83;;
53339;SDS011;46212;50.258;19.062;2023-04-01T06:20:40;9.55;;;3.63;;
53339;SDS011;46212;50.258;19.062;2023-04-01T06:25:58;9.63;;;3.88;;
53339;SDS011;46212;50.258;19.062;2023-04-01T06:28:39;8.02;;;3.42;;
53339;SDS011;46212;50.258;19.062;2023-04-01T06:31:16;7.28;;;3.28;;
53339;SDS011;46212;50.258;19.062;2023-04-01T06:39:18;12.65;;;4.32;;
53339;SDS011;46212;50.258;19.062;2023-04-01T06:50:59;7.93;;;3.72;;
53339;SDS011;46212;50.258;19.062;2023-04-01T06:56:32;9.13;;;4.20;;
53339;SDS011;46212;50.258;19.062;2023-04-01T06:59:04;14.25;;;6.10;;
53339;SDS011;46212;50.258;19.062;2023-04-01T07:01:39;7.32;;;4.00;;
53339;SDS011;46212;50.258;19.062;2023-04-01T07:04:14;7.28;;;3.65;;
53339;SDS011;46212;50.258;19.062;2023-04-01T07:06:50;8.07;;;3.78;;
53339;SDS011;46212;50.258;19.062;2023-04-01T07:09:34;5.50;;;3.33;;
53339;SDS011;46212;50.258;19.062;2023-04-01T07:14:56;12.25;;;4.45;;
53339;SDS011;46212;50.258;19.062;2023-04-01T07:17:30;7.38;;;3.67;;
53339;SDS011;46212;50.258;19.062;2023-04-01T07:20:00;17.92;;;8.88;;
53339;SDS011;46212;50.258;19.062;2023-04-01T07:22:38;13.52;;;6.03;;
53339;SDS011;46212;50.258;19.062;2023-04-01T07:25:26;9.90;;;4.50;;
53339;SDS011;46212;50.258;19.062;2023-04-01T07:27:56;9.63;;;4.20;;
53339;SDS011;46212;50.258;19.062;2023-04-01T07:30:42;7.55;;;3.78;;
53339;SDS011;46212;50.258;19.062;2023-04-01T07:33:15;6.28;;;3.47;;
53339;SDS011;46212;50.258;19.062;2023-04-01T07:41:12;12.03;;;3.60;;
53339;SDS011;46212;50.258;19.062;2023-04-01T07:44:09;5.95;;;3.38;;
53339;SDS011;46212;50.258;19.062;2023-04-01T07:47:08;5.93;;;3.35;;
53339;SDS011;46212;50.258;19.062;2023-04-01T07:52:48;13.77;;;5.07;;
53339;SDS011;46212;50.258;19.062;2023-04-01T07:55:23;18.55;;;6.35;;
53339;SDS011;46212;50.258;19.062;2023-04-01T08:06:59;21.25;;;7.95;;
53339;SDS011;46212;50.258;19.062;2023-04-01T08:09:41;8.70;;;5.10;;
53339;SDS011;46212;50.258;19.062;2023-04-01T08:15:28;8.88;;;4.15;;
53339;SDS011;46212;50.258;19.062;2023-04-01T08:18:14;7.28;;;4.75;;
53339;SDS011;46212;50.258;19.062;2023-04-01T08:25:53;9.25;;;4.40;;
53339;SDS011;46212;50.258;19.062;2023-04-01T08:28:37;10.88;;;4.38;;
53339;SDS011;46212;50.258;19.062;2023-04-01T08:31:14;7.25;;;4.10;;
53339;SDS011;46212;50.258;19.062;2023-04-01T08:33:48;8.88;;;4.15;;
53339;SDS011;46212;50.258;19.062;2023-04-01T09:00:33;55.28;;;29.33;;
53339;SDS011;46212;50.258;19.062;2023-04-01T09:14:21;15.88;;;7.30;;
53339;SDS011;46212;50.258;19.062;2023-04-01T09:22:40;7.30;;;4.25;;
53339;SDS011;46212;50.258;19.062;2023-04-01T09:41:07;11.05;;;5.68;;
53339;SDS011;46212;50.258;19.062;2023-04-01T09:51:37;18.65;;;11.45;;
53339;SDS011;46212;50.258;19.062;2023-04-01T11:01:07;21.02;;;12.13;;
53339;SDS011;46212;50.258;19.062;2023-04-01T11:20:30;8.93;;;4.00;;
53339;SDS011;46212;50.258;19.062;2023-04-01T11:31:54;5.20;;;2.55;;
53339;SDS011;46212;50.258;19.062;2023-04-01T11:40:20;17.25;;;6.45;;
53339;SDS011;46212;50.258;19.062;2023-04-01T11:43:06;5.80;;;2.58;;
53339;SDS011;46212;50.258;19.062;2023-04-01T11:45:49;43.97;;;25.23;;
53339;SDS011;46212;50.258;19.062;2023-04-01T11:48:58;80.82;;;42.67;;
53339;SDS011;46212;50.258;19.062;2023-04-01T11:52:01;3.95;;;2.25;;
53339;SDS011;46212;50.258;19.062;2023-04-01T11:54:47;4.43;;;2.20;;
53339;SDS011;46212;50.258;19.062;2023-04-01T11:57:46;3.25;;;2.08;;
53339;SDS011;46212;50.258;19.062;2023-04-01T12:05:41;7.85;;;2.95;;
53339;SDS011;46212;50.258;19.062;2023-04-01T12:24:45;11.40;;;5.72;;
53339;SDS011;46212;50.258;19.062;2023-04-01T12:35:20;10.57;;;5.43;;
53339;SDS011;46212;50.258;19.062;2023-04-01T12:40:20;12.88;;;6.38;;
53339;SDS011;46212;50.258;19.062;2023-04-01T12:43:02;6.93;;;4.50;;
53339;SDS011;46212;50.258;19.062;2023-04-01T12:46:00;6.38;;;2.75;;
53339;SDS011;46212;50.258;19.062;2023-04-01T13:03:32;6.63;;;2.75;;
53339;SDS011;46212;50.258;19.062;2023-04-01T13:14:42;10.10;;;4.43;;
53339;SDS011;46212;50.258;19.062;2023-04-01T13:17:42;5.60;;;2.92;;
53339;SDS011;46212;50.258;19.062;2023-04-01T13:20:29;15.10;;;8.18;;
53339;SDS011;46212;50.258;19.062;2023-04-01T13:41:19;11.75;;;4.63;;
53339;SDS011;46212;50.258;19.062;2023-04-01T13:43:52;7.93;;;3.95;;
53339;SDS011;46212;50.258;19.062;2023-04-01T13:52:48;4.50;;;2.22;;
53339;SDS011;46212;50.258;19.062;2023-04-01T13:58:12;8.52;;;4.82;;
53339;SDS011;46212;50.258;19.062;2023-04-01T14:10:07;7.97;;;4.63;;
53339;SDS011;46212;50.258;19.062;2023-04-01T14:12:44;8.02;;;5.28;;
53339;SDS011;46212;50.258;19.062;2023-04-01T14:15:20;9.65;;;4.78;;
53339;SDS011;46212;50.258;19.062;2023-04-01T14:18:01;17.67;;;8.95;;
53339;SDS011;46212;50.258;19.062;2023-04-01T14:20:32;17.48;;;8.57;;
53339;SDS011;46212;50.258;19.062;2023-04-01T14:28:36;12.70;;;7.00;;
53339;SDS011;46212;50.258;19.062;2023-04-01T14:34:33;10.60;;;5.97;;
53339;SDS011;46212;50.258;19.062;2023-04-01T14:37:03;12.00;;;6.70;;
53339;SDS011;46212;50.258;19.062;2023-04-01T14:48:06;11.80;;;6.17;;
53339;SDS011;46212;50.258;19.062;2023-04-01T14:50:52;7.20;;;5.35;;
53339;SDS011;46212;50.258;19.062;2023-04-01T14:55:50;7.15;;;5.32;;
53339;SDS011;46212;50.258;19.062;2023-04-01T14:58:18;7.07;;;4.38;;
53339;SDS011;46212;50.258;19.062;2023-04-01T15:00:57;10.60;;;5.00;;
53339;SDS011;46212;50.258;19.062;2023-04-01T15:03:25;9.63;;;6.28;;
53339;SDS011;46212;50.258;19.062;2023-04-01T15:05:56;12.65;;;6.03;;
53339;SDS011;46212;50.258;19.062;2023-04-01T15:08:47;12.95;;;6.55;;
53339;SDS011;46212;50.258;19.062;2023-04-01T15:11:25;11.18;;;7.30;;
53339;SDS011;46212;50.258;19.062;2023-04-01T15:17:04;16.90;;;9.73;;
53339;SDS011;46212;50.258;19.062;2023-04-01T15:31:47;7.55;;;3.88;;
53339;SDS011;46212;50.258;19.062;2023-04-01T15:34:44;8.27;;;3.53;;
53339;SDS011;46212;50.258;19.062;2023-04-01T15:40:28;6.22;;;3.58;;
53339;SDS011;46212;50.258;19.062;2023-04-01T15:49:20;12.45;;;6.38;;
53339;SDS011;46212;50.258;19.062;2023-04-01T16:03:09;16.40;;;7.38;;
53339;SDS011;46212;50.258;19.062;2023-04-01T16:05:48;12.48;;;6.95;;
53339;SDS011;46212;50.258;19.062;2023-04-01T16:11:09;13.48;;;6.35;;
53339;SDS011;46212;50.258;19.062;2023-04-01T16:22:29;8.57;;;4.70;;
53339;SDS011;46212;50.258;19.062;2023-04-01T16:25:17;8.80;;;4.43;;
53339;SDS011;46212;50.258;19.062;2023-04-01T16:33:32;13.32;;;7.47;;
53339;SDS011;46212;50.258;19.062;2023-04-01T16:38:50;13.98;;;7.25;;
53339;SDS011;46212;50.258;19.062;2023-04-01T16:41:26;10.10;;;5.18;;
53339;SDS011;46212;50.258;19.062;2023-04-01T16:43:58;12.57;;;8.20;;
53339;SDS011;46212;50.258;19.062;2023-04-01T16:59:36;16.63;;;9.35;;
53339;SDS011;46212;50.258;19.062;2023-04-01T17:02:03;14.00;;;8.77;;
53339;SDS011;46212;50.258;19.062;2023-04-01T17:10:28;46.63;;;22.92;;
53339;SDS011;46212;50.258;19.062;2023-04-01T17:24:00;28.17;;;19.08;;
53339;SDS011;46212;50.258;19.062;2023-04-01T17:29:15;23.92;;;13.77;;
53339;SDS011;46212;50.258;19.062;2023-04-01T17:37:06;164.23;;;54.17;;
53339;SDS011;46212;50.258;19.062;2023-04-01T17:40:00;51.70;;;21.55;;
53339;SDS011;46212;50.258;19.062;2023-04-01T17:45:33;24.55;;;15.40;;
53339;SDS011;46212;50.258;19.062;2023-04-01T17:53:44;22.40;;;13.50;;
53339;SDS011;46212;50.258;19.062;2023-04-01T18:15:44;27.67;;;10.65;;
53339;SDS011;46212;50.258;19.062;2023-04-01T18:23:56;25.40;;;15.95;;
53339;SDS011;46212;50.258;19.062;2023-04-01T18:29:24;19.75;;;11.93;;
53339;SDS011;46212;50.258;19.062;2023-04-01T18:34:55;23.23;;;11.80;;
53339;SDS011;46212;50.258;19.062;2023-04-01T18:45:21;19.05;;;11.07;;
53339;SDS011;46212;50.258;19.062;2023-04-01T18:50:56;22.95;;;13.15;;
53339;SDS011;46212;50.258;19.062;2023-04-01T18:53:31;30.45;;;15.32;;
53339;SDS011;46212;50.258;19.062;2023-04-01T18:56:05;26.67;;;16.42;;
53339;SDS011;46212;50.258;19.062;2023-04-01T19:09:43;28.60;;;14.98;;
53339;SDS011;46212;50.258;19.062;2023-04-01T19:15:22;24.20;;;13.38;;
53339;SDS011;46212;50.258;19.062;2023-04-01T19:25:53;17.45;;;11.75;;
53339;SDS011;46212;50.258;19.062;2023-04-01T19:33:56;13.60;;;8.50;;
53339;SDS011;46212;50.258;19.062;2023-04-01T19:42:16;10.73;;;5.75;;
53339;SDS011;46212;50.258;19.062;2023-04-01T19:50:40;10.63;;;6.07;;
53339;SDS011;46212;50.258;19.062;2023-04-01T19:53:51;13.65;;;8.27;;
53339;SDS011;46212;50.258;19.062;2023-04-01T20:01:29;14.80;;;8.30;;
53339;SDS011;46212;50.258;19.062;2023-04-01T20:04:04;15.90;;;9.63;;
53339;SDS011;46212;50.258;19.062;2023-04-01T20:06:44;15.43;;;8.07;;
53339;SDS011;46212;50.258;19.062;2023-04-01T20:12:23;17.55;;;9.70;;
53339;SDS011;46212;50.258;19.062;2023-04-01T20:15:02;20.90;;;12.05;;
53339;SDS011;46212;50.258;19.062;2023-04-01T20:17:33;22.08;;;13.32;;
53339;SDS011;46212;50.258;19.062;2023-04-01T20:22:48;33.38;;;18.17;;
53339;SDS011;46212;50.258;19.062;2023-04-01T20:28:04;25.07;;;12.80;;
53339;SDS011;46212;50.258;19.062;2023-04-01T20:53:04;14.73;;;8.55;;
53339;SDS011;46212;50.258;19.062;2023-04-01T21:13:03;8.20;;;3.90;;
53339;SDS011;46212;50.258;19.062;2023-04-01T21:21:33;7.38;;;4.15;;
53339;SDS011;46212;50.258;19.062;2023-04-01T21:41:16;15.45;;;8.30;;
53339;SDS011;46212;50.258;19.062;2023-04-01T21:47:06;15.68;;;8.05;;
53339;SDS011;46212;50.258;19.062;2023-04-01T21:50:14;15.02;;;8.43;;
53339;SDS011;46212;50.258;19.062;2023-04-01T22:10:36;25.40;;;12.05;;
53339;SDS011;46212;50.258;19.062;2023-04-01T22:13:16;22.98;;;12.27;;
53339;SDS011;46212;50.258;19.062;2023-04-01T22:16:01;26.15;;;13.30;;
53339;SDS011;46212;50.258;19.062;2023-04-01T22:24:26;28.73;;;12.73;;
53339;SDS011;46212;50.258;19.062;2023-04-01T22:26:56;21.90;;;12.15;;
53339;SDS011;46212;50.258;19.062;2023-04-01T22:29:36;23.02;;;12.68;;
53339;SDS011;46212;50.258;19.062;2023-04-01T22:32:08;25.10;;;13.63;;
53339;SDS011;46212;50.258;19.062;2023-04-01T22:50:27;25.70;;;14.40;;
53339;SDS011;46212;50.258;19.062;2023-04-01T22:53:13;28.60;;;12.65;;
53339;SDS011;46212;50.258;19.062;2023-04-01T22:55:47;26.30;;;13.57;;
53339;SDS011;46212;50.258;19.062;2023-04-01T22:58:17;26.15;;;13.77;;
53339;SDS011;46212;50.258;19.062;2023-04-01T23:00:49;32.63;;;14.07;;
53339;SDS011;46212;50.258;19.062;2023-04-01T23:03:21;26.83;;;13.98;;
53339;SDS011;46212;50.258;19.062;2023-04-01T23:05:53;25.90;;;13.18;;
53339;SDS011;46212;50.258;19.062;2023-04-01T23:11:18;25.45;;;13.40;;
53339;SDS011;46212;50.258;19.062;2023-04-01T23:13:52;27.38;;;14.77;;
53339;SDS011;46212;50.258;19.062;2023-04-01T23:16:41;24.55;;;13.98;;
53339;SDS011;46212;50.258;19.062;2023-04-01T23:19:17;27.65;;;14.27;;
53339;SDS011;46212;50.258;19.062;2023-04-01T23:21:51;28.73;;;15.40;;
53339;SDS011;46212;50.258;19.062;2023-04-01T23:26:55;29.55;;;14.70;;
53339;SDS011;46212;50.258;19.062;2023-04-01T23:29:26;34.88;;;17.92;;
53339;SDS011;46212;50.258;19.062;2023-04-01T23:31:56;28.88;;;16.80;;
53339;SDS011;46212;50.258;19.062;2023-04-01T23:34:33;34.60;;;17.63;;
53339;SDS011;46212;50.258;19.062;2023-04-01T23:39:35;31.25;;;16.02;;
53339;SDS011;46212;50.258;19.062;2023-04-01T23:42:07;33.90;;;16.40;;
53339;SDS011;46212;50.258;19.062;2023-04-01T23:44:44;36.10;;;16.58;;
53339;SDS011;46212;50.258;19.062;2023-04-01T23:47:12;31.58;;;15.80;;
53339;SDS011;46212;50.258;19.062;2023-04-01T23:49:44;31.95;;;15.18;;
53339;SDS011;46212;50.258;19.062;2023-04-01T23:52:21;30.00;;;15.00;;
53339;SDS011;46212;50.258;19.062;2023-04-01T23:54:56;31.02;;;14.77;;
53339;SDS011;46212;50.258;19.062;2023-04-01T23:57:29;29.25;;;14.95;;
